Time;durP1;ratioP1;P1;durP2;ratioP2;P2;SDS_P1;SDS_P2;PMS_P1;PMS_P2;Temp;Humidity;BMP_temperature;BMP_pressure;BME280_temperature;BME280_humidity;BME280_pressure;Samples;Min_cycle;Max_cycle;Signal;HPM_P1;HPM_P2
2021/09/20 00:00:04;;;;;;;8.48;7.10;;;;;;;13.25;76.19;100521.91;5076129;28;20127;-53
2021/09/20 00:02:31;;;;;;;9.38;7.38;;;;;;;13.23;75.43;100524.63;5074799;28;20424;-51
2021/09/20 00:04:58;;;;;;;10.10;7.03;;;;;;;13.22;75.96;100530.06;5076630;28;20040;-54
2021/09/20 00:07:24;;;;;;;9.50;7.25;;;;;;;13.14;75.57;100508.31;5077120;28;20048;-52
2021/09/20 00:09:50;;;;;;;8.68;6.97;;;;;;;13.14;75.22;100511.84;5079042;28;20056;-52
2021/09/20 00:12:17;;;;;;;8.45;7.22;;;;;;;13.21;75.71;100534.53;5070966;28;20058;-51
2021/09/20 00:14:43;;;;;;;8.23;7.15;;;;;;;13.24;74.92;100534.34;5081090;28;20044;-50
2021/09/20 00:17:10;;;;;;;10.98;7.07;;;;;;;13.21;75.17;100539.84;5076912;28;20044;-52
2021/09/20 00:19:36;;;;;;;7.03;6.35;;;;;;;13.15;75.33;100534.84;5077766;28;20042;-51
2021/09/20 00:22:03;;;;;;;10.25;7.00;;;;;;;13.14;74.67;100534.91;5072315;28;20047;-52
2021/09/20 00:24:30;;;;;;;10.38;6.90;;;;;;;13.17;74.97;100540.09;5080541;28;20059;-52
2021/09/20 00:26:56;;;;;;;8.20;6.28;;;;;;;13.17;74.89;100537.44;5080323;28;20047;-50
2021/09/20 00:29:23;;;;;;;9.13;6.90;;;;;;;13.18;74.68;100525.84;5075783;28;20051;-52
2021/09/20 00:31:49;;;;;;;9.57;6.70;;;;;;;13.18;74.30;100539.16;5076586;28;20066;-51
2021/09/20 00:34:16;;;;;;;8.45;7.03;;;;;;;13.16;74.53;100533.91;5074788;28;20044;-50
2021/09/20 00:36:42;;;;;;;12.55;7.30;;;;;;;13.18;76.17;100539.16;5067501;28;20063;-49
2021/09/20 00:39:09;;;;;;;8.40;6.70;;;;;;;13.20;74.62;100539.94;5068235;28;20789;-52
2021/09/20 00:41:35;;;;;;;10.35;7.07;;;;;;;13.17;74.61;100540.94;5076761;28;20047;-52
2021/09/20 00:44:03;;;;;;;6.95;6.25;;;;;;;13.14;74.08;100537.56;5076201;28;20062;-51
2021/09/20 00:46:29;;;;;;;10.20;6.85;;;;;;;13.12;74.11;100539.44;5078606;28;20461;-51
2021/09/20 00:48:56;;;;;;;9.40;6.70;;;;;;;13.08;75.10;100540.56;5079128;28;20032;-50
2021/09/20 00:51:22;;;;;;;8.65;6.95;;;;;;;13.06;74.59;100537.16;5075071;28;20063;-52
2021/09/20 00:53:49;;;;;;;10.50;6.93;;;;;;;13.09;74.10;100536.94;5074467;28;20089;-51
2021/09/20 00:56:15;;;;;;;7.57;6.70;;;;;;;13.08;73.97;100538.75;5079049;28;20051;-52
2021/09/20 00:58:42;;;;;;;8.63;6.95;;;;;;;13.09;74.20;100542.25;5081142;28;20056;-53
2021/09/20 01:01:08;;;;;;;9.95;6.85;;;;;;;12.95;74.14;100524.41;5080985;28;20044;-53
2021/09/20 01:03:35;;;;;;;8.68;6.25;;;;;;;13.10;73.99;100538.66;5074013;28;20569;-51
2021/09/20 01:06:02;;;;;;;7.78;6.78;;;;;;;13.03;74.44;100537.31;5075926;28;20059;-52
2021/09/20 01:08:29;;;;;;;8.38;6.35;;;;;;;12.98;74.44;100541.06;5074290;28;20205;-52
2021/09/20 01:10:55;;;;;;;8.30;6.57;;;;;;;12.95;74.71;100529.75;5073909;28;20383;-52
2021/09/20 01:13:22;;;;;;;9.20;7.05;;;;;;;12.96;74.83;100540.28;5070105;28;20056;-53
2021/09/20 01:15:49;;;;;;;10.07;6.90;;;;;;;12.92;74.60;100533.41;5079819;28;20051;-54
2021/09/20 01:18:15;;;;;;;9.98;6.97;;;;;;;12.99;74.70;100540.13;5078476;28;20052;-51
2021/09/20 01:20:42;;;;;;;11.02;6.43;;;;;;;12.95;74.98;100537.72;5075195;28;20056;-52
2021/09/20 01:23:08;;;;;;;9.25;7.13;;;;;;;12.95;75.78;100545.69;5081008;28;20055;-53
2021/09/20 01:25:35;;;;;;;8.85;6.55;;;;;;;12.95;75.36;100551.84;5077732;28;20055;-53
2021/09/20 01:28:02;;;;;;;9.65;6.97;;;;;;;12.85;75.11;100529.38;5076032;28;20048;-53
2021/09/20 01:30:28;;;;;;;8.15;6.70;;;;;;;13.02;75.14;100548.88;5079822;28;20062;-51
2021/09/20 01:32:55;;;;;;;8.07;6.22;;;;;;;12.95;74.70;100545.69;5078008;28;20051;-51
2021/09/20 01:35:23;;;;;;;8.20;6.43;;;;;;;12.91;75.55;100550.31;5073919;28;20063;-51
2021/09/20 01:37:50;;;;;;;8.43;6.68;;;;;;;12.95;75.30;100554.53;5083103;28;20065;-51
2021/09/20 01:40:16;;;;;;;9.10;6.97;;;;;;;12.91;75.47;100549.44;5080775;28;20055;-50
2021/09/20 01:42:43;;;;;;;10.00;6.50;;;;;;;12.89;75.78;100562.84;5082885;28;20071;-51
2021/09/20 01:45:12;;;;;;;9.05;6.65;;;;;;;12.90;76.00;100559.25;5078776;28;20047;-52
2021/09/20 01:47:38;;;;;;;11.48;7.13;;;;;;;12.87;75.92;100545.25;5075746;28;20849;-51
2021/09/20 01:50:07;;;;;;;9.20;6.85;;;;;;;12.90;75.85;100559.25;5080592;28;20401;-52
2021/09/20 01:52:35;;;;;;;9.77;6.70;;;;;;;12.90;75.54;100555.72;5076973;28;20073;-51
2021/09/20 01:55:03;;;;;;;9.32;6.97;;;;;;;12.84;75.84;100559.56;5075548;28;20453;-52
2021/09/20 01:57:29;;;;;;;8.20;6.72;;;;;;;12.82;76.46;100555.25;5082559;28;20045;-52
2021/09/20 01:59:56;;;;;;;9.55;6.65;;;;;;;12.80;76.31;100558.00;5080085;28;20040;-57
2021/09/20 02:02:22;;;;;;;9.57;7.13;;;;;;;12.81;77.07;100549.09;5074977;28;20082;-51
2021/09/20 02:04:49;;;;;;;8.88;6.85;;;;;;;12.82;76.77;100548.16;5066358;28;20040;-56
2021/09/20 02:07:15;;;;;;;9.48;7.18;;;;;;;12.83;76.61;100552.53;5079298;28;20056;-51
2021/09/20 02:09:42;;;;;;;9.15;7.22;;;;;;;12.82;76.63;100553.47;5077334;28;20488;-51
2021/09/20 02:12:09;;;;;;;10.65;6.97;;;;;;;12.84;76.57;100551.59;5081787;28;20044;-52
2021/09/20 02:14:35;;;;;;;8.95;6.85;;;;;;;12.88;76.09;100562.91;5079931;28;20052;-51
2021/09/20 02:17:02;;;;;;;9.63;7.65;;;;;;;12.87;76.04;100554.09;5077708;28;20105;-51
2021/09/20 02:19:29;;;;;;;10.57;6.97;;;;;;;12.81;75.70;100564.19;5077406;28;20048;-52
2021/09/20 02:21:55;;;;;;;10.15;7.50;;;;;;;12.66;76.56;100539.28;5071593;28;20055;-51
2021/09/20 02:24:22;;;;;;;9.02;6.43;;;;;;;12.79;76.66;100558.94;5075027;28;20071;-51
2021/09/20 02:26:48;;;;;;;8.20;6.20;;;;;;;12.82;76.27;100555.25;5084511;28;20413;-51
2021/09/20 02:29:15;;;;;;;7.63;6.72;;;;;;;12.81;76.66;100559.72;5071511;28;20059;-52
2021/09/20 02:31:41;;;;;;;9.10;6.75;;;;;;;12.77;76.61;100555.50;5078134;28;21033;-52
2021/09/20 02:34:08;;;;;;;8.38;6.75;;;;;;;12.69;77.17;100551.56;5079802;28;20058;-53
2021/09/20 02:36:34;;;;;;;8.50;6.80;;;;;;;12.65;77.26;100556.16;5080919;28;20046;-52
2021/09/20 02:39:02;;;;;;;8.88;6.78;;;;;;;12.62;77.21;100551.88;5069652;28;20051;-51
2021/09/20 02:41:28;;;;;;;8.00;6.70;;;;;;;12.62;77.43;100546.53;5086671;28;20066;-52
2021/09/20 02:43:55;;;;;;;8.18;6.30;;;;;;;12.67;77.23;100550.78;5088786;28;20041;-57
2021/09/20 02:46:22;;;;;;;8.15;6.75;;;;;;;12.64;76.67;100551.78;5084241;28;20052;-52
2021/09/20 02:48:48;;;;;;;10.32;7.07;;;;;;;12.61;76.42;100547.50;5087267;28;20044;-54
2021/09/20 02:51:15;;;;;;;8.70;6.57;;;;;;;12.59;76.66;100557.34;5090175;28;20052;-52
2021/09/20 02:53:41;;;;;;;8.93;6.53;;;;;;;12.59;76.86;100554.69;5082410;28;20044;-52
2021/09/20 02:56:08;;;;;;;7.93;6.20;;;;;;;12.55;76.90;100550.50;5075190;28;20131;-55
2021/09/20 02:58:34;;;;;;;9.00;6.57;;;;;;;12.57;76.95;100550.41;5080538;28;20532;-51
2021/09/20 03:01:01;;;;;;;8.50;7.00;;;;;;;12.56;76.89;100554.00;5080847;28;20051;-51
2021/09/20 03:03:28;;;;;;;7.95;6.88;;;;;;;12.61;76.66;100555.47;5075866;28;20056;-54
2021/09/20 03:05:55;;;;;;;8.30;6.32;;;;;;;12.56;76.81;100552.22;5077424;28;20064;-52
2021/09/20 03:08:21;;;;;;;10.75;7.38;;;;;;;12.59;76.31;100548.53;5075849;28;20056;-53
2021/09/20 03:10:48;;;;;;;10.52;7.20;;;;;;;12.55;76.48;100557.59;5080731;28;20040;-50
2021/09/20 03:13:15;;;;;;;9.52;6.85;;;;;;;12.54;76.22;100561.19;5073851;28;20838;-52
2021/09/20 03:15:41;;;;;;;8.05;7.15;;;;;;;12.52;76.25;100557.75;5077560;28;20505;-53
2021/09/20 03:18:08;;;;;;;10.55;7.28;;;;;;;12.49;77.00;100553.44;5077513;28;20052;-52
2021/09/20 03:20:34;;;;;;;8.98;6.82;;;;;;;12.51;76.84;100556.03;5080436;28;20066;-52
2021/09/20 03:23:01;;;;;;;10.23;7.40;;;;;;;12.51;76.68;100561.34;5072766;28;20044;-52
2021/09/20 03:25:27;;;;;;;9.75;7.20;;;;;;;12.51;77.80;100561.34;5074268;28;20044;-54
2021/09/20 03:27:54;;;;;;;9.60;7.00;;;;;;;12.52;76.78;100566.59;5078635;28;20073;-56
2021/09/20 03:30:20;;;;;;;10.52;7.10;;;;;;;12.49;77.14;100561.41;5067595;28;20120;-51
2021/09/20 03:32:47;;;;;;;9.40;6.88;;;;;;;12.52;76.76;100565.72;5080858;28;20048;-52
2021/09/20 03:35:15;;;;;;;10.88;7.28;;;;;;;12.50;76.72;100563.13;5079128;28;20036;-50
2021/09/20 03:37:44;;;;;;;11.15;7.20;;;;;;;12.46;77.07;100568.69;5072967;28;20058;-52
2021/09/20 03:40:13;;;;;;;10.65;7.00;;;;;;;12.48;76.90;100580.09;5074134;28;20055;-52
2021/09/20 03:42:42;;;;;;;8.77;7.13;;;;;;;12.50;76.71;100583.53;5072768;28;20043;-52
2021/09/20 03:45:11;;;;;;;10.55;7.65;;;;;;;12.47;76.73;100581.03;5067509;28;20063;-52
2021/09/20 03:47:38;;;;;;;8.82;6.97;;;;;;;12.39;77.17;100577.91;5074158;28;20099;-52
2021/09/20 03:50:07;;;;;;;14.75;7.28;;;;;;;12.39;77.50;100589.41;5080841;28;20052;-54
2021/09/20 03:52:34;;;;;;;9.48;6.97;;;;;;;12.37;77.69;100593.94;5076758;28;20505;-52
2021/09/20 03:55:00;;;;;;;10.88;7.78;;;;;;;12.41;77.96;100584.88;5077688;28;20075;-52
2021/09/20 03:57:27;;;;;;;9.10;7.05;;;;;;;12.42;77.10;100586.59;5079177;28;20123;-52
2021/09/20 03:59:53;;;;;;;9.98;7.10;;;;;;;12.42;76.71;100588.41;5076887;28;20052;-52
2021/09/20 04:02:20;;;;;;;9.27;7.22;;;;;;;12.41;76.83;100587.53;5075566;28;20066;-53
2021/09/20 04:04:47;;;;;;;9.25;7.07;;;;;;;12.47;76.84;100592.50;5065191;28;20505;-52
2021/09/20 04:07:13;;;;;;;8.32;7.13;;;;;;;12.47;76.32;100586.34;5077460;28;20048;-50
2021/09/20 04:09:41;;;;;;;15.55;7.13;;;;;;;12.42;76.68;100597.22;5080074;28;20074;-53
2021/09/20 04:12:09;;;;;;;14.05;7.70;;;;;;;12.36;77.18;100589.56;5077579;28;20055;-53
2021/09/20 04:14:39;;;;;;;8.88;7.63;;;;;;;12.30;77.38;100592.50;5076851;28;20044;-52
2021/09/20 04:17:07;;;;;;;11.13;7.63;;;;;;;12.25;77.33;100584.81;5080345;28;20048;-52
2021/09/20 04:19:34;;;;;;;8.82;6.95;;;;;;;12.15;77.47;100572.06;5078473;28;20052;-51
2021/09/20 04:22:02;;;;;;;9.10;7.25;;;;;;;12.33;77.17;100594.16;5073128;28;20389;-51
2021/09/20 04:24:29;;;;;;;10.20;7.82;;;;;;;12.33;76.60;100594.16;5078915;28;20059;-53
2021/09/20 04:26:56;;;;;;;8.75;7.55;;;;;;;12.32;76.78;100597.75;5069838;28;20055;-51
2021/09/20 04:29:22;;;;;;;9.65;7.20;;;;;;;12.26;77.02;100601.59;5075933;28;20056;-52
2021/09/20 04:31:49;;;;;;;10.38;7.72;;;;;;;12.28;77.06;100600.56;5074600;28;20051;-55
2021/09/20 04:34:16;;;;;;;12.35;7.95;;;;;;;12.27;77.00;100608.63;5072995;28;20067;-50
2021/09/20 04:36:42;;;;;;;9.35;7.35;;;;;;;12.24;77.70;100606.97;5075775;28;20056;-53
2021/09/20 04:39:09;;;;;;;10.88;7.50;;;;;;;12.27;77.06;100606.84;5075323;28;20044;-51
2021/09/20 04:41:37;;;;;;;9.40;7.35;;;;;;;12.27;76.79;100604.19;5073026;28;20858;-53
2021/09/20 04:44:03;;;;;;;10.90;8.20;;;;;;;12.26;76.67;100607.75;5070123;28;20048;-52
2021/09/20 04:46:30;;;;;;;16.08;8.02;;;;;;;12.26;76.56;100607.75;5076630;28;20059;-54
2021/09/20 04:48:56;;;;;;;9.60;7.25;;;;;;;12.22;76.49;100606.19;5069971;28;20071;-52
2021/09/20 04:51:23;;;;;;;10.02;7.32;;;;;;;12.28;76.40;100608.50;5079189;28;20051;-52
2021/09/20 04:53:50;;;;;;;11.32;7.20;;;;;;;12.27;76.39;100606.84;5073875;28;20058;-53
2021/09/20 04:56:17;;;;;;;8.88;7.43;;;;;;;12.23;76.52;100618.53;5075252;28;20044;-53
2021/09/20 04:58:43;;;;;;;10.07;7.95;;;;;;;12.20;76.81;100616.03;5070451;28;20039;-57
2021/09/20 05:01:10;;;;;;;9.27;8.05;;;;;;;12.19;76.50;100622.28;5056799;28;20051;-50
2021/09/20 05:03:37;;;;;;;10.63;8.18;;;;;;;12.21;76.80;100623.06;5075857;28;20170;-52
2021/09/20 05:06:03;;;;;;;9.43;7.63;;;;;;;12.20;76.82;100626.66;5078564;28;20048;-52
2021/09/20 05:08:32;;;;;;;10.85;7.72;;;;;;;12.13;76.40;100611.09;5079123;28;20499;-53
2021/09/20 05:11:00;;;;;;;11.20;8.20;;;;;;;12.21;76.31;100625.72;5075242;28;20051;-52
2021/09/20 05:13:27;;;;;;;12.60;8.02;;;;;;;12.26;76.42;100621.03;5078428;28;20048;-52
2021/09/20 05:15:53;;;;;;;11.52;8.23;;;;;;;12.19;76.75;100618.75;5074637;28;20040;-51
2021/09/20 05:18:20;;;;;;;10.48;7.80;;;;;;;12.21;76.39;100628.38;5069294;28;20463;-51
2021/09/20 05:21:11;;;;;;;9.60;7.78;;;;;;;12.20;77.04;100631.97;5072230;28;20055;-52
2021/09/20 05:23:37;;;;;;;8.80;7.32;;;;;;;12.19;76.96;100627.59;5072033;28;20048;-50
2021/09/20 05:26:04;;;;;;;10.63;7.95;;;;;;;12.18;77.04;100632.97;5073801;28;20056;-51
2021/09/20 05:28:31;;;;;;;11.07;8.15;;;;;;;12.19;76.91;100630.22;5079898;28;20044;-52
2021/09/20 05:30:58;;;;;;;10.30;8.75;;;;;;;12.23;76.54;100633.59;5072981;28;20052;-53
2021/09/20 05:33:24;;;;;;;10.93;8.13;;;;;;;12.28;76.43;100635.06;5074514;28;20430;-51
2021/09/20 05:35:51;;;;;;;10.40;8.18;;;;;;;12.31;75.92;100628.75;5067573;28;20056;-52
2021/09/20 05:38:18;;;;;;;11.13;7.97;;;;;;;12.35;75.83;100634.78;5077993;28;20040;-51
2021/09/20 05:40:47;;;;;;;12.20;7.85;;;;;;;12.35;76.22;100646.25;5074584;28;20045;-50
2021/09/20 05:43:14;;;;;;;11.63;8.27;;;;;;;12.35;76.99;100642.75;5072925;28;20052;-51
2021/09/20 05:45:40;;;;;;;9.82;8.63;;;;;;;12.36;75.88;100642.66;5072206;28;20052;-52
2021/09/20 05:48:07;;;;;;;10.73;8.23;;;;;;;12.38;75.57;100630.19;5072254;28;20099;-53
2021/09/20 05:50:34;;;;;;;10.48;8.55;;;;;;;12.40;74.97;100636.28;5075740;28;20048;-52
2021/09/20 05:53:01;;;;;;;12.65;8.63;;;;;;;12.48;74.50;100643.84;5067473;28;20043;-52
2021/09/20 05:55:27;;;;;;;9.25;8.15;;;;;;;12.48;75.10;100644.69;5074614;28;20863;-51
2021/09/20 05:57:54;;;;;;;11.02;8.57;;;;;;;12.47;74.46;100634.16;5072142;28;20048;-52
2021/09/20 06:00:22;;;;;;;11.25;7.68;;;;;;;12.48;74.52;100643.84;5072513;28;20044;-52
2021/09/20 06:02:48;;;;;;;12.10;8.52;;;;;;;12.48;74.56;100641.19;5070498;28;20556;-51
2021/09/20 06:05:16;;;;;;;10.48;7.95;;;;;;;12.47;74.55;100644.78;5078478;28;20104;-51
2021/09/20 06:07:43;;;;;;;11.63;8.40;;;;;;;12.55;74.31;100655.88;5073398;28;20135;-52
2021/09/20 06:10:11;;;;;;;11.50;8.27;;;;;;;12.58;74.06;100647.75;5078264;28;20492;-52
2021/09/20 06:12:38;;;;;;;16.15;9.15;;;;;;;12.55;74.14;100651.44;5077895;28;20051;-51
2021/09/20 06:15:08;;;;;;;10.05;7.75;;;;;;;12.59;75.79;100654.78;5074195;28;20097;-52
2021/09/20 06:17:35;;;;;;;10.23;8.82;;;;;;;12.60;76.40;100648.50;5074916;28;20036;-52
2021/09/20 06:20:02;;;;;;;14.90;9.25;;;;;;;12.70;73.96;100657.75;5074456;28;20040;-53
2021/09/20 06:22:29;;;;;;;13.07;9.13;;;;;;;12.74;73.61;100650.50;5076111;28;20044;-51
2021/09/20 06:24:57;;;;;;;11.35;8.95;;;;;;;12.75;73.88;100665.50;5065920;28;20051;-52
2021/09/20 06:27:23;;;;;;;13.73;8.82;;;;;;;12.71;74.17;100663.94;5075346;28;20074;-54
2021/09/20 06:29:50;;;;;;;11.82;8.88;;;;;;;12.70;74.46;100664.88;5077232;28;20285;-52
2021/09/20 06:32:16;;;;;;;12.27;8.70;;;;;;;12.60;73.91;100640.53;5072318;28;20048;-52
2021/09/20 06:34:44;;;;;;;11.70;8.70;;;;;;;12.73;73.92;100667.38;5075357;28;20044;-51
2021/09/20 06:37:11;;;;;;;10.73;8.52;;;;;;;12.73;74.01;100668.22;5076490;28;20052;-53
2021/09/20 06:39:37;;;;;;;13.70;9.13;;;;;;;12.72;75.00;100665.66;5076275;28;20952;-51
2021/09/20 06:42:06;;;;;;;14.57;9.30;;;;;;;12.80;75.24;100661.66;5067654;28;20093;-51
2021/09/20 06:44:33;;;;;;;13.13;9.05;;;;;;;12.93;74.25;100667.16;5074368;28;20044;-52
2021/09/20 06:47:03;;;;;;;12.82;9.07;;;;;;;12.98;73.36;100668.66;5059997;28;20069;-51
2021/09/20 06:49:31;;;;;;;12.77;9.63;;;;;;;13.01;73.24;100675.63;5070160;28;20619;-50
2021/09/20 06:51:58;;;;;;;16.17;9.60;;;;;;;13.05;72.83;100673.66;5079204;28;20060;-51
2021/09/20 06:54:24;;;;;;;10.95;9.55;;;;;;;13.11;72.18;100673.31;5073294;28;20044;-51
2021/09/20 06:56:51;;;;;;;12.50;10.15;;;;;;;13.14;72.06;100679.34;5076145;28;20044;-51
2021/09/20 06:59:18;;;;;;;12.13;9.90;;;;;;;13.22;71.06;100679.81;5075762;28;20095;-50
2021/09/20 07:01:44;;;;;;;12.18;8.88;;;;;;;13.23;71.23;100675.34;5076469;28;20090;-51
2021/09/20 07:04:12;;;;;;;14.77;9.52;;;;;;;13.29;71.46;100677.69;5076964;28;20464;-52
2021/09/20 07:06:39;;;;;;;14.85;10.00;;;;;;;13.29;71.01;100678.56;5078664;28;20151;-52
2021/09/20 07:09:06;;;;;;;13.60;9.73;;;;;;;13.30;71.63;100685.59;5077551;28;20044;-52
2021/09/20 07:11:32;;;;;;;14.70;10.00;;;;;;;13.43;71.73;100685.78;5067434;28;20048;-51
2021/09/20 07:13:59;;;;;;;16.25;9.50;;;;;;;13.50;70.03;100681.88;5075515;28;20044;-52
2021/09/20 07:16:25;;;;;;;12.52;9.38;;;;;;;13.46;70.36;100680.31;5079157;28;20052;-51
2021/09/20 07:18:52;;;;;;;12.32;10.13;;;;;;;13.49;70.23;100684.63;5059370;28;20047;-52
2021/09/20 07:21:22;;;;;;;13.30;10.23;;;;;;;13.52;69.84;100695.09;5073436;28;20043;-52
2021/09/20 07:23:49;;;;;;;14.15;9.85;;;;;;;13.46;69.90;100692.75;5074794;28;20063;-51
2021/09/20 07:26:16;;;;;;;11.73;9.60;;;;;;;13.47;70.46;100694.47;5069483;28;20054;-51
2021/09/20 07:28:43;;;;;;;12.68;10.02;;;;;;;13.51;70.42;100701.34;5072447;28;20048;-51
2021/09/20 07:31:10;;;;;;;13.35;10.05;;;;;;;13.50;70.65;100695.19;5078350;28;20048;-52
2021/09/20 07:33:37;;;;;;;15.60;10.30;;;;;;;13.63;71.38;100709.53;5081655;28;20646;-52
2021/09/20 07:36:04;;;;;;;12.63;9.80;;;;;;;13.75;69.76;100707.13;5082959;28;20055;-54
2021/09/20 07:38:31;;;;;;;14.18;10.15;;;;;;;13.85;68.60;100711.84;5083220;28;20043;-51
2021/09/20 07:41:01;;;;;;;15.57;10.75;;;;;;;13.86;68.81;100702.06;5075129;28;20658;-52
2021/09/20 07:43:29;;;;;;;14.68;11.07;;;;;;;13.92;68.93;100707.06;5067801;28;20055;-52
2021/09/20 07:45:56;;;;;;;12.65;9.75;;;;;;;13.93;68.80;100685.66;5076192;28;20091;-51
2021/09/20 07:48:22;;;;;;;12.38;9.95;;;;;;;14.14;67.51;100712.91;5074396;28;20127;-52
2021/09/20 07:50:50;;;;;;;11.95;9.85;;;;;;;14.18;67.35;100709.09;5071568;28;20126;-54
2021/09/20 07:53:17;;;;;;;11.55;9.57;;;;;;;14.28;69.64;100725.44;5072346;28;20056;-51
2021/09/20 07:55:44;;;;;;;13.75;10.10;;;;;;;14.40;66.91;100722.09;5066229;28;20048;-51
2021/09/20 07:58:12;;;;;;;11.88;9.40;;;;;;;14.35;67.95;100721.47;5072070;28;20044;-53
2021/09/20 08:00:40;;;;;;;13.75;9.80;;;;;;;14.31;67.46;100734.13;5078500;28;20067;-51
2021/09/20 08:03:09;;;;;;;13.30;9.73;;;;;;;14.35;66.99;100721.47;5081161;28;20058;-50
2021/09/20 08:05:40;;;;;;;14.23;9.40;;;;;;;14.36;67.79;100726.69;5071488;28;20055;-51
2021/09/20 08:08:08;;;;;;;14.98;10.05;;;;;;;14.35;67.12;100732.97;5075835;28;20044;-51
2021/09/20 08:10:36;;;;;;;13.38;9.73;;;;;;;14.24;67.68;100732.72;5078525;28;20105;-53
2021/09/20 08:13:06;;;;;;;11.68;10.38;;;;;;;14.18;67.99;100742.88;5077669;28;20048;-52
2021/09/20 08:15:33;;;;;;;12.48;9.45;;;;;;;14.08;68.23;100717.69;5074292;28;20052;-52
2021/09/20 08:18:00;;;;;;;12.82;8.98;;;;;;;14.21;68.31;100734.69;5073311;28;20040;-51
2021/09/20 08:20:27;;;;;;;12.73;9.88;;;;;;;14.26;67.82;100746.84;5073068;28;20062;-51
2021/09/20 08:22:54;;;;;;;16.73;11.05;;;;;;;14.27;67.46;100743.22;5069673;28;20044;-50
2021/09/20 08:25:22;;;;;;;13.75;11.02;;;;;;;14.28;67.58;100742.28;5068871;28;20036;-53
2021/09/20 08:27:49;;;;;;;14.32;10.15;;;;;;;14.44;69.93;100744.09;5073604;28;20056;-51
2021/09/20 08:30:19;;;;;;;14.00;10.65;;;;;;;14.60;66.88;100744.94;5072177;28;20052;-51
2021/09/20 08:32:45;;;;;;;14.18;10.10;;;;;;;14.61;66.35;100736.00;5071208;28;20059;-51
2021/09/20 08:35:12;;;;;;;12.45;9.95;;;;;;;14.59;66.52;100753.88;5075579;28;20045;-51
2021/09/20 08:37:38;;;;;;;12.80;10.35;;;;;;;14.59;66.20;100748.53;5069421;28;20052;-52
2021/09/20 08:40:07;;;;;;;11.68;10.35;;;;;;;14.62;66.49;100748.38;5065886;28;20044;-52
2021/09/20 08:42:36;;;;;;;11.75;9.90;;;;;;;14.70;66.18;100752.28;5078016;28;20063;-51
2021/09/20 08:45:09;;;;;;;13.73;10.85;;;;;;;14.75;66.01;100749.38;5069003;28;20040;-52
2021/09/20 08:47:40;;;;;;;13.13;9.77;;;;;;;14.81;65.27;100758.78;5067869;28;20048;-51
2021/09/20 08:50:07;;;;;;;14.43;9.57;;;;;;;14.78;65.42;100759.00;5073230;28;20047;-51
2021/09/20 08:52:34;;;;;;;12.00;9.48;;;;;;;14.86;64.88;100756.72;5078491;28;20079;-51
2021/09/20 08:55:01;;;;;;;13.85;10.57;;;;;;;14.96;65.06;100745.41;5073457;28;20086;-52
2021/09/20 08:57:28;;;;;;;13.50;10.35;;;;;;;15.07;63.47;100769.66;5070695;28;20333;-50
2021/09/20 08:59:54;;;;;;;10.32;9.27;;;;;;;14.99;64.27;100766.56;5075565;28;20442;-52
2021/09/20 09:02:21;;;;;;;13.40;9.88;;;;;;;15.02;64.13;100766.41;5078541;28;20544;-51
2021/09/20 09:04:48;;;;;;;11.82;10.05;;;;;;;15.07;63.51;100768.81;5075650;28;20075;-51
2021/09/20 09:07:19;;;;;;;14.52;10.35;;;;;;;15.13;62.71;100757.75;5076828;28;20200;-51
2021/09/20 09:09:48;;;;;;;12.95;10.07;;;;;;;15.19;62.57;100762.72;5074953;28;20044;-53
2021/09/20 09:12:29;;;;;;;13.55;9.43;;;;;;;15.29;62.36;100755.88;5078466;28;20040;-52
2021/09/20 09:15:00;;;;;;;14.02;9.68;;;;;;;15.47;61.62;100767.22;5071291;28;20048;-52
2021/09/20 09:17:56;;;;;;;14.07;9.43;;;;;;;15.80;63.03;100761.66;5061972;28;20067;-51
2021/09/20 09:20:34;;;;;;;11.40;8.57;;;;;;;16.15;58.93;100762.09;5069673;28;20807;-51
2021/09/20 09:23:09;;;;;;;10.50;8.15;;;;;;;16.26;58.19;100767.59;5071959;28;20039;-52
2021/09/20 09:25:48;;;;;;;12.02;8.90;;;;;;;16.59;57.26;100750.31;5062841;28;20051;-51
2021/09/20 09:28:19;;;;;;;9.90;8.85;;;;;;;16.82;57.29;100757.72;5068815;28;20517;-52
2021/09/20 09:30:58;;;;;;;11.48;8.73;;;;;;;17.03;55.86;100761.59;5074391;28;20058;-51
2021/09/20 09:33:38;;;;;;;9.15;7.82;;;;;;;17.21;54.97;100761.28;5079143;28;20159;-51
2021/09/20 09:36:10;;;;;;;10.40;8.45;;;;;;;17.30;54.01;100758.00;5078835;28;20044;-52
2021/09/20 09:38:55;;;;;;;9.95;7.95;;;;;;;17.10;54.21;100748.66;5079418;28;20138;-52
2021/09/20 09:41:41;;;;;;;12.13;8.63;;;;;;;17.11;53.99;100764.63;5080750;28;20475;-52
2021/09/20 09:44:12;;;;;;;9.38;7.82;;;;;;;17.05;54.99;100754.31;5078171;28;20051;-52
2021/09/20 09:46:44;;;;;;;9.60;8.38;;;;;;;17.19;55.05;100756.03;5080827;28;20040;-51
2021/09/20 09:49:17;;;;;;;10.35;7.57;;;;;;;17.32;53.78;100759.59;5067280;28;20055;-50
2021/09/20 09:51:52;;;;;;;10.10;8.00;;;;;;;17.49;54.71;100753.06;5081542;28;20101;-52
2021/09/20 09:54:25;;;;;;;10.52;7.85;;;;;;;17.59;53.50;100754.16;5078672;28;20054;-54
2021/09/20 09:57:18;;;;;;;8.95;7.85;;;;;;;17.62;52.82;100748.59;5083678;28;20221;-53
2021/09/20 10:00:00;;;;;;;13.10;9.20;;;;;;;17.69;52.45;100755.22;5082001;28;20048;-53
2021/09/20 10:02:31;;;;;;;12.55;9.15;;;;;;;17.42;53.32;100759.81;5066420;28;20083;-52
2021/09/20 10:05:11;;;;;;;13.27;7.80;;;;;;;17.54;55.14;100750.94;5066261;28;20150;-51
2021/09/20 10:07:43;;;;;;;9.90;7.97;;;;;;;17.87;53.05;100753.94;5073033;28;20079;-53
2021/09/20 10:10:16;;;;;;;10.10;8.50;;;;;;;17.92;52.70;100744.72;5081950;28;20043;-52
2021/09/20 10:12:46;;;;;;;10.45;8.05;;;;;;;18.03;52.68;100753.69;5074867;28;20051;-54
2021/09/20 10:15:15;;;;;;;10.27;9.13;;;;;;;18.05;52.26;100753.56;5070043;28;20055;-52
2021/09/20 10:17:43;;;;;;;13.02;8.73;;;;;;;18.10;52.80;100748.75;5064665;28;20584;-53
2021/09/20 10:20:13;;;;;;;11.65;8.60;;;;;;;18.15;53.67;100754.59;5071898;28;20059;-52
2021/09/20 10:22:41;;;;;;;12.57;8.50;;;;;;;18.23;52.95;100760.28;5070361;28;20051;-52
2021/09/20 10:25:10;;;;;;;10.70;8.50;;;;;;;18.65;50.96;100761.63;5064887;28;20466;-51
2021/09/20 10:27:37;;;;;;;10.40;8.15;;;;;;;18.88;51.48;100749.19;5062485;28;20055;-53
2021/09/20 10:30:06;;;;;;;13.15;9.32;;;;;;;18.89;50.98;100751.72;5063498;28;20055;-52
2021/09/20 10:32:34;;;;;;;11.53;9.03;;;;;;;19.07;50.39;100754.00;5071305;28;20054;-51
2021/09/20 10:35:28;;;;;;;9.90;8.38;;;;;;;19.35;49.85;100747.38;5064857;28;20324;-53
2021/09/20 10:38:01;;;;;;;10.98;9.15;;;;;;;19.40;49.43;100747.84;5066715;28;20032;-52
2021/09/20 10:40:28;;;;;;;10.68;8.25;;;;;;;19.46;50.97;100752.75;5072901;28;20052;-51
2021/09/20 10:43:03;;;;;;;9.93;8.25;;;;;;;19.56;48.32;100751.06;5072148;28;20051;-51
2021/09/20 10:45:36;;;;;;;10.05;8.02;;;;;;;19.70;49.53;100750.84;5073738;28;20040;-51
2021/09/20 10:48:17;;;;;;;9.65;7.75;;;;;;;19.78;47.90;100755.63;5065187;28;20126;-52
2021/09/20 10:50:46;;;;;;;10.30;8.13;;;;;;;19.49;48.05;100755.19;5072010;28;20045;-52
2021/09/20 10:53:33;;;;;;;9.52;8.35;;;;;;;19.10;49.20;100764.50;5078196;28;20055;-52
2021/09/20 10:56:07;;;;;;;9.32;7.40;;;;;;;18.99;48.93;100759.09;5074907;28;20146;-51
2021/09/20 10:59:03;;;;;;;10.10;8.05;;;;;;;18.98;49.81;100755.56;5076236;28;20066;-52
2021/09/20 11:01:31;;;;;;;8.70;7.13;;;;;;;18.78;49.77;100766.94;5070491;28;20048;-53
2021/09/20 11:04:01;;;;;;;8.38;6.93;;;;;;;18.77;50.46;100763.41;5064685;28;20059;-51
2021/09/20 11:06:35;;;;;;;7.55;6.30;;;;;;;18.84;49.82;100764.66;5061725;28;20051;-52
2021/09/20 11:09:07;;;;;;;8.85;6.47;;;;;;;18.75;49.80;100768.03;5070491;28;21020;-52
2021/09/20 11:11:36;;;;;;;7.50;6.60;;;;;;;18.72;50.39;100762.06;5074092;28;20576;-51
2021/09/20 11:14:05;;;;;;;7.45;6.65;;;;;;;18.66;49.22;100778.59;5076573;28;20052;-52
2021/09/20 11:16:53;;;;;;;7.35;6.40;;;;;;;18.47;50.07;100769.19;5070522;28;20040;-52
2021/09/20 11:19:30;;;;;;;7.45;6.68;;;;;;;18.61;52.46;100772.69;5067314;28;20080;-53
2021/09/20 11:22:05;;;;;;;8.05;6.78;;;;;;;18.75;50.50;100764.47;5070959;28;20055;-52
2021/09/20 11:24:47;;;;;;;9.80;7.40;;;;;;;18.83;49.26;100764.78;5079198;28;20433;-51